Appomattox, Virginia
Current Conditions -  °F | °C
As of 1:15 PM on Monday 24 Nov 2014 (Local Time) from K0V4 Reporting Station
Scattered Clouds Scattered Clouds  
Wind Chill: 24°   Ceiling: Unl
Heat Index: 24°   Visibility: 10mi
Dew Point: 14°   Wind: 16mph
Humidity: 55%   Direction: 200°SSW
Pressure: 29.68"   Gusts: 23mph
Location:  37.36°N, 78.83°W
Report Text: K0V4 241815Z AUTO 20014G20KT 10SM SCT044 24/14 A2968 RMK AO1 T02350140
Loading
Personal Weather Stations






























Interactive Weather Map New forecast layout! Learn more

10-Day Weather Forecast

Advertisements
Track Severe Weather on mobile